createdAt,value
2019-05-14T00:00:21.588Z,0
2019-05-14T00:01:22.325Z,0
2019-05-14T00:02:24.061Z,0
2019-05-14T00:03:26.007Z,0
2019-05-14T00:04:27.692Z,0
2019-05-14T00:05:31.982Z,0
2019-05-14T00:06:31.710Z,0
2019-05-14T00:07:33.493Z,0
2019-05-14T00:08:35.295Z,0
2019-05-14T00:09:36.836Z,0
2019-05-14T00:10:38.426Z,0
2019-05-14T00:11:41.861Z,0
2019-05-14T00:12:42.057Z,0
2019-05-14T00:13:43.657Z,0
2019-05-14T00:14:45.782Z,0
2019-05-14T00:15:47.510Z,0
2019-05-14T00:16:51.252Z,0
2019-05-14T00:17:52.195Z,0
2019-05-14T00:18:52.934Z,0
2019-05-14T00:20:06.504Z,0
2019-05-14T00:20:56.649Z,0
2019-05-14T00:21:58.951Z,0
2019-05-14T00:23:01.431Z,0
2019-05-14T00:24:02.658Z,0
2019-05-14T00:25:04.458Z,0
2019-05-14T00:26:06.384Z,0
2019-05-14T00:27:08.148Z,0
2019-05-14T00:28:11.629Z,0
2019-05-14T00:29:11.871Z,0
2019-05-14T00:30:13.958Z,0
2019-05-14T00:31:15.591Z,0
2019-05-14T00:32:17.939Z,0
2019-05-14T00:33:22.330Z,0
2019-05-14T00:34:21.866Z,0
2019-05-14T00:35:23.519Z,0
2019-05-14T00:36:25.791Z,0
2019-05-14T00:37:27.530Z,0
2019-05-14T00:38:31.347Z,0
2019-05-14T00:39:32.003Z,0
2019-05-14T00:40:33.747Z,0
2019-05-14T00:41:35.826Z,0
2019-05-14T00:42:37.712Z,0
2019-05-14T00:43:41.531Z,0
2019-05-14T00:44:53.710Z,0
2019-05-14T00:45:43.344Z,0
2019-05-14T00:46:45.065Z,0
2019-05-14T00:47:46.784Z,0
2019-05-14T00:48:48.373Z,0
2019-05-14T00:49:51.678Z,0
2019-05-14T00:50:51.965Z,0
2019-05-14T00:51:54.290Z,0
2019-05-14T00:52:56.011Z,0
2019-05-14T00:53:57.945Z,0
2019-05-14T00:55:01.018Z,0
2019-05-14T00:56:02.170Z,0
2019-05-14T00:57:03.272Z,0
2019-05-14T00:58:05.022Z,0
2019-05-14T00:59:06.742Z,0
2019-05-14T01:00:08.347Z,0
2019-05-14T01:01:11.798Z,0
2019-05-14T01:02:12.368Z,0
2019-05-14T01:03:14.764Z,0
2019-05-14T01:04:16.447Z,0
2019-05-14T01:05:18.415Z,0
2019-05-14T01:06:21.871Z,0
2019-05-14T01:07:22.808Z,0
2019-05-14T01:08:24.548Z,0
2019-05-14T01:09:26.075Z,0
2019-05-14T01:10:27.779Z,0
2019-05-14T01:11:31.331Z,0
2019-05-14T01:12:31.793Z,0
2019-05-14T01:13:32.689Z,0
2019-05-14T01:14:34.980Z,0
2019-05-14T01:15:36.688Z,0
2019-05-14T01:16:38.308Z,0
2019-05-14T01:17:41.999Z,0
2019-05-14T01:18:41.564Z,0
2019-05-14T01:19:43.025Z,0
2019-05-14T01:20:44.650Z,0
2019-05-14T01:21:46.347Z,0
2019-05-14T01:22:48.101Z,0
2019-05-14T01:23:51.199Z,0
2019-05-14T01:24:52.270Z,0
2019-05-14T01:25:52.861Z,0
2019-05-14T01:26:54.541Z,0
2019-05-14T01:27:56.131Z,0
2019-05-14T01:28:57.599Z,0
2019-05-14T01:29:59.171Z,0
2019-05-14T01:31:01.133Z,0
2019-05-14T01:32:02.708Z,0
2019-05-14T01:33:04.337Z,0
2019-05-14T01:34:05.993Z,0
2019-05-14T01:35:07.844Z,0
2019-05-14T01:36:09.698Z,0
2019-05-14T01:37:11.936Z,0
2019-05-14T01:38:13.242Z,0
2019-05-14T01:39:15.046Z,0
2019-05-14T01:40:16.680Z,0
2019-05-14T01:41:18.356Z,0
2019-05-14T01:42:21.569Z,0
2019-05-14T01:43:22.036Z,0
2019-05-14T01:44:23.460Z,0
2019-05-14T01:45:28.190Z,0
2019-05-14T01:46:26.824Z,0
2019-05-14T01:47:28.586Z,0
2019-05-14T01:48:31.301Z,0
2019-05-14T01:49:31.968Z,0
2019-05-14T01:50:33.284Z,0
2019-05-14T01:51:35.129Z,0
2019-05-14T01:52:37.042Z,0
2019-05-14T01:53:38.634Z,0
2019-05-14T01:54:42.394Z,0
2019-05-14T01:55:41.949Z,0
2019-05-14T01:56:43.649Z,0
2019-05-14T01:57:45.366Z,0
2019-05-14T01:58:47.076Z,0
2019-05-14T01:59:48.721Z,0
2019-05-14T02:00:52.098Z,0
2019-05-14T02:01:52.250Z,0
2019-05-14T02:02:54.162Z,0
2019-05-14T02:03:55.894Z,0
2019-05-14T02:04:57.657Z,0
2019-05-14T02:06:01.318Z,0
2019-05-14T02:07:02.192Z,0
2019-05-14T02:08:02.684Z,0
2019-05-14T02:09:04.771Z,0
2019-05-14T02:10:06.520Z,0
2019-05-14T02:11:08.152Z,0
2019-05-14T02:12:11.453Z,0
2019-05-14T02:13:12.295Z,0
2019-05-14T02:14:13.231Z,0
2019-05-14T02:15:14.881Z,0
2019-05-14T02:16:16.641Z,0
2019-05-14T02:17:18.399Z,0
2019-05-14T02:18:21.597Z,0
2019-05-14T02:19:22.168Z,0
2019-05-14T02:20:23.377Z,0
2019-05-14T02:21:24.960Z,0
2019-05-14T02:22:27.747Z,0
2019-05-14T02:23:31.761Z,0
2019-05-14T02:24:32.230Z,0
2019-05-14T02:25:33.085Z,0
2019-05-14T02:26:34.706Z,0
2019-05-14T02:27:36.353Z,0
2019-05-14T02:28:38.245Z,0
2019-05-14T02:29:41.408Z,0
2019-05-14T02:30:51.501Z,0
2019-05-14T02:31:43.638Z,0
2019-05-14T02:32:45.412Z,0
2019-05-14T02:33:50.023Z,0
2019-05-14T02:34:50.039Z,0
2019-05-14T02:35:50.530Z,0
2019-05-14T02:36:52.218Z,0
2019-05-14T02:37:53.936Z,0
2019-05-14T02:38:55.504Z,0
2019-05-14T02:39:59.568Z,0
2019-05-14T02:40:59.962Z,0
2019-05-14T02:42:00.630Z,0
2019-05-14T02:43:02.538Z,0
2019-05-14T02:44:04.436Z,0
2019-05-14T02:45:08.754Z,0
2019-05-14T02:46:13.117Z,0
2019-05-14T02:47:10.319Z,0
2019-05-14T02:48:11.959Z,0
2019-05-14T02:49:13.747Z,0
2019-05-14T02:50:15.487Z,0
2019-05-14T02:51:19.544Z,0
2019-05-14T02:52:20.411Z,0
2019-05-14T02:53:20.633Z,0
2019-05-14T02:54:22.572Z,0
2019-05-14T02:55:24.622Z,0
2019-05-14T02:56:29.318Z,0
2019-05-14T02:57:30.385Z,0
2019-05-14T02:58:30.288Z,0
2019-05-14T02:59:31.744Z,0
2019-05-14T03:00:33.502Z,0
2019-05-14T03:01:35.319Z,0
2019-05-14T03:02:40.035Z,0
2019-05-14T03:03:40.271Z,0
2019-05-14T03:04:40.510Z,0
2019-05-14T03:05:42.471Z,0
2019-05-14T03:06:44.429Z,0
2019-05-14T03:07:49.567Z,0
2019-05-14T03:08:49.407Z,0
2019-05-14T03:09:50.181Z,0
2019-05-14T03:10:51.538Z,0
2019-05-14T03:11:53.338Z,0
2019-05-14T03:12:55.257Z,0
2019-05-14T03:13:59.599Z,0
2019-05-14T03:14:59.179Z,0
2019-05-14T03:16:19.067Z,0
2019-05-14T03:17:03.127Z,0
2019-05-14T03:18:04.975Z,0
2019-05-14T03:19:09.744Z,0
2019-05-14T03:20:09.092Z,0
2019-05-14T03:21:10.837Z,0
2019-05-14T03:22:12.650Z,0
2019-05-14T03:23:18.632Z,0
2019-05-14T03:24:19.433Z,0
2019-05-14T03:25:19.763Z,0
2019-05-14T03:26:21.752Z,0
2019-05-14T03:27:23.726Z,0
2019-05-14T03:28:25.615Z,0
2019-05-14T03:29:30.405Z,0
2019-05-14T03:30:32.228Z,0
2019-05-14T03:31:33.242Z,0
2019-05-14T03:32:33.517Z,0
2019-05-14T03:33:34.773Z,0
2019-05-14T03:34:41.961Z,0
2019-05-14T03:35:44.347Z,0
2019-05-14T03:36:43.051Z,0
2019-05-14T03:37:42.654Z,0
2019-05-14T03:38:44.605Z,0
2019-05-14T03:39:49.172Z,0
2019-05-14T03:40:49.459Z,0
2019-05-14T03:41:50.363Z,0
2019-05-14T03:42:52.201Z,0
2019-05-14T03:43:54.066Z,0
2019-05-14T03:44:59.357Z,0
2019-05-14T03:45:59.315Z,0
2019-05-14T03:47:04.743Z,0
2019-05-14T03:48:02.184Z,0
2019-05-14T03:49:04.118Z,0
2019-05-14T03:50:06.031Z,0
2019-05-14T03:51:09.225Z,0
2019-05-14T03:52:11.103Z,0
2019-05-14T03:53:12.888Z,0
2019-05-14T03:54:14.923Z,0
2019-05-14T03:55:19.920Z,0
2019-05-14T03:56:19.277Z,0
2019-05-14T03:57:21.056Z,0
2019-05-14T03:58:22.953Z,0
2019-05-14T03:59:24.910Z,0
2019-05-14T04:00:28.849Z,0
2019-05-14T04:01:29.667Z,0
2019-05-14T04:02:31.034Z,0
2019-05-14T04:03:32.998Z,0
2019-05-14T04:04:34.959Z,0
2019-05-14T04:05:39.892Z,0
2019-05-14T04:06:40.319Z,0
2019-05-14T04:07:41.676Z,0
2019-05-14T04:08:43.609Z,0
2019-05-14T04:09:48.921Z,0
2019-05-14T04:10:53.479Z,0
2019-05-14T04:11:50.172Z,5
2019-05-14T04:12:51.495Z,5
2019-05-14T04:13:53.380Z,5
2019-05-14T04:14:55.371Z,5
2019-05-14T04:16:00.078Z,5
2019-05-14T04:17:08.398Z,5
2019-05-14T04:18:03.137Z,5
2019-05-14T04:19:05.080Z,5
2019-05-14T04:20:09.147Z,5
2019-05-14T04:21:09.987Z,5
2019-05-14T04:22:10.514Z,5
2019-05-14T04:23:12.352Z,5
2019-05-14T04:24:14.193Z,5
2019-05-14T04:25:19.288Z,5
2019-05-14T04:26:20.041Z,5
2019-05-14T04:27:20.275Z,5
2019-05-14T04:28:21.681Z,5
2019-05-14T04:29:23.799Z,5
2019-05-14T04:30:28.792Z,5
2019-05-14T04:31:29.800Z,5
2019-05-14T04:32:30.379Z,5
2019-05-14T04:33:32.153Z,5
2019-05-14T04:34:34.058Z,11
2019-05-14T04:35:35.884Z,11
2019-05-14T04:36:39.190Z,11
2019-05-14T04:37:39.922Z,11
2019-05-14T04:38:41.492Z,11
2019-05-14T04:39:43.288Z,11
2019-05-14T04:40:45.103Z,11
2019-05-14T04:41:49.527Z,11
2019-05-14T04:42:50.328Z,11
2019-05-14T04:43:50.790Z,11
2019-05-14T04:44:52.693Z,11
2019-05-14T04:45:54.613Z,11
2019-05-14T04:46:59.728Z,11
2019-05-14T04:48:00.170Z,16
2019-05-14T04:49:01.453Z,16
2019-05-14T04:50:03.582Z,16
2019-05-14T04:51:09.555Z,16
2019-05-14T04:52:09.719Z,16
2019-05-14T04:53:09.513Z,16
2019-05-14T04:54:11.334Z,16
2019-05-14T04:55:13.547Z,16
2019-05-14T04:56:15.475Z,16
2019-05-14T04:57:19.579Z,16
2019-05-14T04:58:21.608Z,16
2019-05-14T04:59:21.557Z,16
2019-05-14T05:00:23.631Z,16
2019-05-14T05:01:25.379Z,16
2019-05-14T05:02:29.836Z,16
2019-05-14T05:03:31.458Z,16
2019-05-14T05:04:30.773Z,16
2019-05-14T05:05:32.619Z,16
2019-05-14T05:06:34.444Z,16
2019-05-14T05:07:36.550Z,16
2019-05-14T05:08:39.445Z,16
2019-05-14T05:09:40.355Z,16
2019-05-14T05:10:42.491Z,16
2019-05-14T05:11:44.534Z,16
2019-05-14T05:12:49.040Z,16
2019-05-14T05:13:48.821Z,16
2019-05-14T05:14:50.097Z,16
2019-05-14T05:15:52.461Z,16
2019-05-14T05:16:54.318Z,16
2019-05-14T05:17:58.713Z,16
2019-05-14T05:18:59.505Z,16
2019-05-14T05:19:59.755Z,16
2019-05-14T05:21:01.503Z,22
2019-05-14T05:22:03.226Z,22
2019-05-14T05:23:04.991Z,22
2019-05-14T05:24:09.017Z,22
2019-05-14T05:25:08.594Z,22
2019-05-14T05:26:11.250Z,22
2019-05-14T05:27:12.991Z,22
2019-05-14T05:28:14.911Z,22
2019-05-14T05:29:18.444Z,22
2019-05-14T05:30:18.993Z,22
2019-05-14T05:31:20.469Z,22
2019-05-14T05:32:22.276Z,22
2019-05-14T05:33:24.705Z,22
2019-05-14T05:34:28.145Z,22
2019-05-14T05:35:29.175Z,22
2019-05-14T05:36:29.995Z,28
2019-05-14T05:37:31.845Z,28
2019-05-14T05:38:33.673Z,28
2019-05-14T05:39:35.501Z,28
2019-05-14T05:40:39.134Z,28
2019-05-14T05:41:40.028Z,28
2019-05-14T05:42:42.078Z,28
2019-05-14T05:43:43.918Z,28
2019-05-14T05:44:48.166Z,28
2019-05-14T05:45:48.596Z,22
2019-05-14T05:46:50.002Z,28
2019-05-14T05:47:57.919Z,28
2019-05-14T05:48:53.677Z,28
2019-05-14T05:49:55.311Z,28
2019-05-14T05:50:59.137Z,28
2019-05-14T05:51:59.412Z,28
2019-05-14T05:53:00.968Z,28
2019-05-14T05:54:02.948Z,28
2019-05-14T05:55:04.571Z,28
2019-05-14T05:56:08.848Z,28
2019-05-14T05:57:09.213Z,28
2019-05-14T05:58:09.580Z,28
2019-05-14T05:59:11.646Z,28
2019-05-14T06:00:13.387Z,33
2019-05-14T06:01:15.163Z,33
2019-05-14T06:02:18.657Z,33
2019-05-14T06:03:21.043Z,33
2019-05-14T06:05:29.225Z,33
2019-05-14T06:06:30.838Z,33
2019-05-14T06:07:32.436Z,33
2019-05-14T06:08:34.031Z,33
2019-05-14T06:09:37.936Z,33
2019-05-14T06:10:39.737Z,33
2019-05-14T06:11:38.895Z,33
2019-05-14T06:12:40.452Z,33
2019-05-14T06:13:41.995Z,33
2019-05-14T06:14:43.771Z,33
2019-05-14T06:15:48.714Z,33
2019-05-14T06:16:48.672Z,33
2019-05-14T06:19:01.278Z,39
2019-05-14T06:20:02.949Z,39
2019-05-14T06:21:04.626Z,39
2019-05-14T06:22:06.334Z,39
2019-05-14T06:23:08.999Z,39
2019-05-14T06:24:10.588Z,39
2019-05-14T06:25:12.219Z,39
2019-05-14T06:26:13.922Z,39
2019-05-14T06:27:17.731Z,39
2019-05-14T06:28:20.528Z,39
2019-05-14T06:29:18.784Z,39
2019-05-14T06:30:20.370Z,39
2019-05-14T06:31:22.162Z,39
2019-05-14T06:32:23.917Z,39
2019-05-14T06:33:25.513Z,45
2019-05-14T06:34:28.909Z,45
2019-05-14T06:35:28.693Z,45
2019-05-14T06:36:30.353Z,45
2019-05-14T06:37:32.363Z,45
2019-05-14T06:38:34.243Z,45
2019-05-14T06:39:38.970Z,45
2019-05-14T06:40:39.536Z,45
2019-05-14T06:41:42.538Z,45
2019-05-14T06:42:42.109Z,45
2019-05-14T06:43:43.580Z,45
2019-05-14T06:44:45.380Z,45
2019-05-14T06:45:49.302Z,45
2019-05-14T06:46:49.785Z,45
2019-05-14T06:47:50.890Z,45
2019-05-14T06:48:52.660Z,45
2019-05-14T06:49:54.401Z,45
2019-05-14T06:50:58.046Z,45
2019-05-14T06:51:59.346Z,45
2019-05-14T06:53:00.085Z,45
2019-05-14T06:54:02.305Z,45
2019-05-14T06:55:04.856Z,50
2019-05-14T06:56:08.005Z,50
2019-05-14T06:57:08.846Z,50
2019-05-14T06:58:10.047Z,50
2019-05-14T06:59:11.809Z,50
2019-05-14T07:00:13.498Z,50
2019-05-14T07:01:15.270Z,56
2019-05-14T07:02:19.136Z,56
2019-05-14T07:03:18.441Z,61
2019-05-14T07:04:20.190Z,61
2019-05-14T07:05:21.754Z,61
2019-05-14T07:06:23.348Z,61
2019-05-14T07:07:25.384Z,61
2019-05-14T07:08:28.568Z,61
2019-05-14T07:09:29.279Z,61
2019-05-14T07:10:30.945Z,61
2019-05-14T07:11:32.718Z,61
2019-05-14T07:12:34.584Z,67
2019-05-14T07:13:38.407Z,67
2019-05-14T07:14:38.837Z,61
2019-05-14T07:15:42.147Z,61
2019-05-14T07:16:43.788Z,67
2019-05-14T07:17:45.764Z,67
2019-05-14T07:18:53.435Z,67
2019-05-14T07:19:49.324Z,50
2019-05-14T07:20:50.859Z,56
2019-05-14T07:21:52.467Z,73
2019-05-14T07:22:54.063Z,73
2019-05-14T07:23:55.653Z,67
2019-05-14T07:24:58.681Z,78
2019-05-14T07:25:58.848Z,73
2019-05-14T07:27:00.303Z,78
2019-05-14T07:28:01.807Z,73
2019-05-14T07:29:03.500Z,78
2019-05-14T07:30:05.058Z,78
2019-05-14T07:31:09.517Z,84
2019-05-14T07:32:09.633Z,84
2019-05-14T07:33:11.340Z,90
2019-05-14T07:34:13.077Z,84
2019-05-14T07:35:18.149Z,84
2019-05-14T07:36:18.679Z,84
2019-05-14T07:37:19.458Z,84
2019-05-14T07:38:21.013Z,78
2019-05-14T07:39:23.164Z,78
2019-05-14T07:40:24.803Z,78
2019-05-14T07:41:28.369Z,84
2019-05-14T07:42:28.864Z,90
2019-05-14T07:43:29.661Z,90
2019-05-14T07:44:32.144Z,90
2019-05-14T07:45:33.776Z,84
2019-05-14T07:46:35.420Z,84
2019-05-14T07:47:38.850Z,84
2019-05-14T07:48:39.735Z,90
2019-05-14T07:49:41.509Z,73
2019-05-14T07:50:43.071Z,84
2019-05-14T07:51:44.874Z,90
2019-05-14T07:52:49.551Z,90
2019-05-14T07:53:48.746Z,95
2019-05-14T07:54:49.909Z,90
2019-05-14T07:55:51.533Z,90
2019-05-14T07:56:53.260Z,90
2019-05-14T07:57:54.931Z,78
2019-05-14T07:58:58.465Z,90
2019-05-14T07:59:59.079Z,90
2019-05-14T08:01:00.465Z,95
2019-05-14T08:02:01.873Z,95
2019-05-14T08:03:03.267Z,101
2019-05-14T08:04:04.671Z,101
2019-05-14T08:05:06.057Z,101
2019-05-14T08:06:08.369Z,106
2019-05-14T08:07:09.187Z,112
2019-05-14T08:08:10.212Z,112
2019-05-14T08:09:11.605Z,106
2019-05-14T08:10:13.032Z,84
2019-05-14T08:11:14.432Z,112
2019-05-14T08:12:17.113Z,106
2019-05-14T08:13:18.602Z,112
2019-05-14T08:14:18.670Z,123
2019-05-14T08:15:22.339Z,123
2019-05-14T08:16:21.301Z,123
2019-05-14T08:17:22.723Z,118
2019-05-14T08:18:24.128Z,101
2019-05-14T08:19:27.851Z,106
2019-05-14T08:20:28.518Z,118
2019-05-14T08:21:28.765Z,118
2019-05-14T08:22:29.708Z,118
2019-05-14T08:23:31.098Z,118
2019-05-14T08:24:32.491Z,118
2019-05-14T08:25:33.885Z,112
2019-05-14T08:26:35.280Z,106
2019-05-14T08:27:38.633Z,106
2019-05-14T08:28:38.423Z,112
2019-05-14T08:29:40.067Z,112
2019-05-14T08:30:40.938Z,112
2019-05-14T08:31:42.350Z,112
2019-05-14T08:32:43.759Z,112
2019-05-14T08:33:45.332Z,118
2019-05-14T08:34:48.024Z,118
2019-05-14T08:35:48.872Z,118
2019-05-14T08:36:49.466Z,123
2019-05-14T08:38:04.394Z,123
2019-05-14T08:38:52.288Z,123
2019-05-14T08:39:53.669Z,123
2019-05-14T08:40:55.073Z,118
2019-05-14T08:42:03.612Z,123
2019-05-14T08:42:58.357Z,123
2019-05-14T08:43:59.538Z,95
2019-05-14T08:45:04.790Z,129
2019-05-14T08:46:01.978Z,129
2019-05-14T08:47:03.424Z,129
2019-05-14T08:48:04.835Z,101
2019-05-14T08:49:08.793Z,129
2019-05-14T08:50:09.106Z,129
2019-05-14T08:51:09.091Z,129
2019-05-14T08:52:10.313Z,129
2019-05-14T08:53:11.767Z,129
2019-05-14T08:54:13.181Z,118
2019-05-14T08:55:14.600Z,73
2019-05-14T08:56:16.009Z,101
2019-05-14T08:57:18.998Z,140
2019-05-14T08:58:20.190Z,146
2019-05-14T08:59:20.342Z,146
2019-05-14T09:00:21.801Z,146
2019-05-14T09:01:23.230Z,140
2019-05-14T09:02:24.644Z,146
2019-05-14T09:03:28.544Z,146
2019-05-14T09:04:30.274Z,146
2019-05-14T09:05:29.517Z,146
2019-05-14T09:06:30.929Z,151
2019-05-14T09:07:32.372Z,151
2019-05-14T09:08:33.780Z,157
2019-05-14T09:09:35.201Z,163
2019-05-14T09:10:36.816Z,168
2019-05-14T09:11:44.658Z,151
2019-05-14T09:12:39.774Z,163
2019-05-14T09:13:41.171Z,168
2019-05-14T09:14:42.619Z,174
2019-05-14T09:15:44.057Z,174
2019-05-14T09:16:47.748Z,180
2019-05-14T09:17:48.555Z,180
2019-05-14T09:18:49.183Z,185
2019-05-14T09:20:02.026Z,180
2019-05-14T09:20:51.276Z,185
2019-05-14T09:21:52.706Z,185
2019-05-14T09:22:54.203Z,191
2019-05-14T09:23:58.603Z,185
2019-05-14T09:24:59.900Z,185
2019-05-14T09:25:59.119Z,191
2019-05-14T09:27:00.563Z,185
2019-05-14T09:28:01.969Z,191
2019-05-14T09:29:18.298Z,191
2019-05-14T09:30:04.789Z,191
2019-05-14T09:31:08.272Z,191
2019-05-14T09:32:09.386Z,191
2019-05-14T09:33:08.921Z,185
2019-05-14T09:34:10.317Z,185
2019-05-14T09:35:11.738Z,191
2019-05-14T09:36:19.520Z,196
2019-05-14T09:37:14.511Z,202
2019-05-14T09:38:18.645Z,196
2019-05-14T09:39:18.802Z,196
2019-05-14T09:40:19.844Z,202
2019-05-14T09:41:20.281Z,202
2019-05-14T09:42:21.689Z,202
2019-05-14T09:43:23.086Z,208
2019-05-14T09:44:24.495Z,219
2019-05-14T09:45:28.117Z,225
2019-05-14T09:46:28.857Z,236
2019-05-14T09:47:28.650Z,247
2019-05-14T09:48:30.111Z,61
2019-05-14T09:49:31.507Z,129
2019-05-14T09:50:32.902Z,292
2019-05-14T09:51:34.313Z,382
2019-05-14T09:52:35.728Z,405
2019-05-14T09:53:38.318Z,551
2019-05-14T09:54:41.609Z,624
2019-05-14T09:55:39.917Z,326
2019-05-14T09:56:41.316Z,286
2019-05-14T09:57:42.725Z,247
2019-05-14T09:58:44.173Z,253
2019-05-14T09:59:47.813Z,264
2019-05-14T10:00:48.494Z,264
2019-05-14T10:01:50.760Z,264
2019-05-14T10:02:49.782Z,275
2019-05-14T10:03:51.198Z,95
2019-05-14T10:04:52.629Z,298
2019-05-14T10:05:53.991Z,101
2019-05-14T10:06:55.431Z,90
2019-05-14T10:07:59.262Z,140
2019-05-14T10:08:59.078Z,118
2019-05-14T10:09:59.591Z,315
2019-05-14T10:11:01.018Z,315
2019-05-14T10:12:02.396Z,230
2019-05-14T10:13:03.840Z,309
2019-05-14T10:14:05.342Z,298
2019-05-14T10:15:08.630Z,298
2019-05-14T10:16:09.428Z,303
2019-05-14T10:17:09.931Z,320
2019-05-14T10:18:12.233Z,196
2019-05-14T10:19:12.789Z,348
2019-05-14T10:20:14.191Z,793
2019-05-14T10:21:15.599Z,933
2019-05-14T10:22:19.532Z,748
2019-05-14T10:23:18.880Z,663
2019-05-14T10:24:19.770Z,360
2019-05-14T10:25:21.171Z,106
2019-05-14T10:26:22.602Z,78
2019-05-14T10:27:24.056Z,157
2019-05-14T10:28:25.485Z,101
2019-05-14T10:29:28.543Z,354
2019-05-14T10:30:28.568Z,360
2019-05-14T10:31:29.702Z,376
2019-05-14T10:32:31.124Z,371
2019-05-14T10:33:32.586Z,135
2019-05-14T10:34:34.109Z,118
2019-05-14T10:35:35.511Z,421
2019-05-14T10:36:36.998Z,382
2019-05-14T10:37:40.054Z,1456
2019-05-14T10:38:39.907Z,2340
2019-05-14T10:39:41.382Z,3431
2019-05-14T10:40:42.881Z,4123
2019-05-14T10:41:44.283Z,2970
2019-05-14T10:42:45.719Z,191
2019-05-14T10:43:49.312Z,376
2019-05-14T10:44:48.605Z,2632
2019-05-14T10:45:50.111Z,123
2019-05-14T10:46:51.515Z,916
2019-05-14T10:47:52.973Z,680
2019-05-14T10:48:54.429Z,421
2019-05-14T10:49:58.277Z,213
2019-05-14T10:51:02.928Z,843
2019-05-14T10:51:59.001Z,939
2019-05-14T10:53:00.494Z,928
2019-05-14T10:54:17.850Z,725
2019-05-14T10:55:03.356Z,787
2019-05-14T10:56:05.206Z,753
2019-05-14T10:57:09.322Z,793
2019-05-14T10:58:08.887Z,1147
2019-05-14T10:59:09.673Z,2278
2019-05-14T11:00:11.009Z,2503
2019-05-14T11:01:12.481Z,1873
2019-05-14T11:02:14.049Z,1001
2019-05-14T11:03:15.666Z,101
2019-05-14T11:04:18.957Z,90
2019-05-14T11:05:18.732Z,90
2019-05-14T11:06:19.957Z,84
2019-05-14T11:07:21.475Z,90
2019-05-14T11:08:24.238Z,123
2019-05-14T11:09:25.516Z,320
2019-05-14T11:10:29.577Z,95
2019-05-14T11:11:29.533Z,95
2019-05-14T11:12:30.972Z,95
2019-05-14T11:13:33.057Z,714
2019-05-14T11:14:34.664Z,1698
2019-05-14T11:15:39.254Z,2120
2019-05-14T11:16:41.551Z,995
2019-05-14T11:17:40.640Z,787
2019-05-14T11:18:40.908Z,2576
2019-05-14T11:19:42.406Z,3819
2019-05-14T11:20:43.933Z,3678
2019-05-14T11:21:45.413Z,2705
2019-05-14T11:22:49.081Z,1108
2019-05-14T11:23:49.417Z,140
2019-05-14T11:24:50.701Z,106
2019-05-14T11:25:52.119Z,106
2019-05-14T11:26:53.552Z,551
2019-05-14T11:27:54.992Z,118
2019-05-14T11:28:58.524Z,101
2019-05-14T11:29:58.952Z,95
2019-05-14T11:31:00.463Z,90
2019-05-14T11:32:01.957Z,123
2019-05-14T11:33:03.451Z,500
2019-05-14T11:34:04.899Z,523
2019-05-14T11:35:10.702Z,123
2019-05-14T11:36:09.309Z,95
2019-05-14T11:37:09.906Z,106
2019-05-14T11:38:27.891Z,489
2019-05-14T11:39:12.772Z,517
2019-05-14T11:40:15.079Z,202
2019-05-14T11:41:18.446Z,157
2019-05-14T11:42:19.769Z,517
2019-05-14T11:43:19.708Z,511
2019-05-14T11:44:21.434Z,151
2019-05-14T11:45:22.961Z,123
2019-05-14T11:46:39.270Z,106
2019-05-14T11:47:26.512Z,95
2019-05-14T11:48:28.990Z,95
2019-05-14T11:49:30.459Z,90
2019-05-14T11:50:32.980Z,90
2019-05-14T11:51:58.389Z,466
2019-05-14T11:52:38.679Z,495
2019-05-14T11:53:38.721Z,500
2019-05-14T11:54:41.252Z,517
2019-05-14T11:55:42.346Z,500
2019-05-14T11:56:44.858Z,489
2019-05-14T11:57:48.407Z,483
2019-05-14T11:58:47.719Z,483
2019-05-14T11:59:49.173Z,483
2019-05-14T12:00:50.627Z,483
2019-05-14T12:01:54.853Z,495
2019-05-14T12:02:53.767Z,489
2019-05-14T12:03:55.335Z,489
2019-05-14T12:04:56.751Z,489
2019-05-14T12:05:58.585Z,495
2019-05-14T12:06:59.790Z,489
2019-05-14T12:08:01.282Z,495
2019-05-14T12:09:02.747Z,489
2019-05-14T12:10:04.193Z,500
2019-05-14T12:11:05.602Z,489
2019-05-14T12:12:11.542Z,478
2019-05-14T12:13:08.602Z,483
2019-05-14T12:14:10.545Z,489
2019-05-14T12:15:11.940Z,495
2019-05-14T12:16:13.394Z,495
2019-05-14T12:17:14.814Z,511
2019-05-14T12:18:18.413Z,500
2019-05-14T12:19:18.810Z,506
2019-05-14T12:20:19.021Z,511
2019-05-14T12:21:20.412Z,495
2019-05-14T12:22:21.818Z,140
2019-05-14T12:23:23.237Z,112
2019-05-14T12:24:24.666Z,101
2019-05-14T12:25:26.181Z,112
2019-05-14T12:26:28.252Z,500
2019-05-14T12:27:29.596Z,528
2019-05-14T12:28:30.930Z,444
2019-05-14T12:29:32.932Z,123
2019-05-14T12:30:34.414Z,129
2019-05-14T12:31:38.373Z,140
2019-05-14T12:32:39.623Z,135
2019-05-14T12:33:39.678Z,146
2019-05-14T12:34:39.918Z,489
2019-05-14T12:35:41.347Z,455
2019-05-14T12:36:42.840Z,478
2019-05-14T12:37:44.406Z,472
2019-05-14T12:38:45.898Z,472
2019-05-14T12:39:47.374Z,489
2019-05-14T12:40:48.815Z,472
2019-05-14T12:41:50.223Z,472
2019-05-14T12:42:51.689Z,472
2019-05-14T12:43:53.114Z,438
2019-05-14T12:44:54.530Z,478
2019-05-14T12:45:59.105Z,466
2019-05-14T12:46:58.724Z,371
2019-05-14T12:47:59.011Z,472
2019-05-14T12:49:00.424Z,472
2019-05-14T12:50:01.834Z,472
2019-05-14T12:51:03.262Z,483
2019-05-14T12:53:08.237Z,483
2019-05-14T12:54:09.268Z,146
2019-05-14T12:55:09.451Z,393
2019-05-14T12:56:10.702Z,472
2019-05-14T12:57:12.140Z,466
2019-05-14T12:58:13.557Z,455
2019-05-14T12:59:15.075Z,461
2019-05-14T13:00:16.687Z,466
2019-05-14T13:01:20.092Z,461
2019-05-14T13:02:19.491Z,461
2019-05-14T13:03:20.944Z,466
2019-05-14T13:04:22.383Z,466
2019-05-14T13:05:24.033Z,466
2019-05-14T13:06:25.459Z,472
2019-05-14T13:07:26.875Z,455
2019-05-14T13:08:28.371Z,466
2019-05-14T13:09:29.776Z,253
2019-05-14T13:10:31.230Z,123
2019-05-14T13:11:32.699Z,118
2019-05-14T13:12:34.126Z,129
2019-05-14T13:13:35.602Z,140
2019-05-14T13:14:39.209Z,354
2019-05-14T13:15:39.361Z,236
2019-05-14T13:16:40.407Z,461
2019-05-14T13:17:41.889Z,118
2019-05-14T13:18:44.194Z,123
2019-05-14T13:19:48.545Z,129
2019-05-14T13:20:48.212Z,433
2019-05-14T13:21:59.234Z,438
2019-05-14T13:22:50.715Z,438
2019-05-14T13:23:52.292Z,427
2019-05-14T13:24:53.755Z,421
2019-05-14T13:25:55.347Z,421
2019-05-14T13:26:58.639Z,421
2019-05-14T13:27:59.401Z,427
2019-05-14T13:29:00.179Z,433
2019-05-14T13:30:01.592Z,427
2019-05-14T13:31:03.429Z,421
2019-05-14T13:32:05.259Z,427
2019-05-14T13:33:08.657Z,106
2019-05-14T13:34:08.894Z,382
2019-05-14T13:35:13.326Z,444
2019-05-14T13:36:11.175Z,106
2019-05-14T13:37:12.913Z,106
2019-05-14T13:38:14.652Z,455
2019-05-14T13:39:15.770Z,450
2019-05-14T13:40:20.822Z,106
2019-05-14T13:41:19.239Z,84
2019-05-14T13:42:20.643Z,78
2019-05-14T13:43:22.389Z,84
2019-05-14T13:44:24.976Z,405
2019-05-14T13:45:25.723Z,405
2019-05-14T13:46:28.723Z,410
2019-05-14T13:47:28.974Z,410
2019-05-14T13:48:30.679Z,405
2019-05-14T13:49:32.130Z,405
2019-05-14T13:50:33.683Z,410
2019-05-14T13:51:35.316Z,416
2019-05-14T13:52:40.588Z,427
2019-05-14T13:53:39.232Z,416
2019-05-14T13:54:40.860Z,112
2019-05-14T13:55:46.556Z,101
2019-05-14T13:56:43.704Z,95
2019-05-14T13:57:48.480Z,101
2019-05-14T13:58:48.961Z,95
2019-05-14T13:59:49.376Z,106
2019-05-14T14:00:52.119Z,399
2019-05-14T14:01:54.715Z,388
2019-05-14T14:02:53.383Z,360
2019-05-14T14:04:06.244Z,376
2019-05-14T14:04:58.917Z,354
2019-05-14T14:05:59.459Z,365
2019-05-14T14:06:59.987Z,382
2019-05-14T14:08:01.416Z,140
2019-05-14T14:09:03.093Z,241
2019-05-14T14:10:04.695Z,84
2019-05-14T14:11:11.915Z,393
2019-05-14T14:12:08.241Z,382
2019-05-14T14:13:11.233Z,371
2019-05-14T14:14:11.043Z,360
2019-05-14T14:15:12.698Z,376
2019-05-14T14:16:15.260Z,376
2019-05-14T14:17:18.232Z,376
2019-05-14T14:18:20.654Z,382
2019-05-14T14:19:18.913Z,393
2019-05-14T14:20:20.500Z,376
2019-05-14T14:21:21.914Z,382
2019-05-14T14:22:23.786Z,129
2019-05-14T14:23:28.205Z,348
2019-05-14T14:24:28.857Z,376
2019-05-14T14:25:29.761Z,371
2019-05-14T14:26:30.281Z,376
2019-05-14T14:27:31.708Z,376
2019-05-14T14:28:33.221Z,360
2019-05-14T14:29:34.936Z,331
2019-05-14T14:30:39.283Z,360
2019-05-14T14:31:41.413Z,371
2019-05-14T14:32:40.538Z,354
2019-05-14T14:33:41.855Z,348
2019-05-14T14:34:43.644Z,337
2019-05-14T14:35:45.411Z,140
2019-05-14T14:36:49.681Z,292
2019-05-14T14:37:49.466Z,303
2019-05-14T14:38:52.561Z,191